createdAt,value
2022-10-11T00:02:26.459Z,18.01
2022-10-11T00:05:04.298Z,18.01
2022-10-11T00:07:42.306Z,17.83
2022-10-11T00:10:21.154Z,17.93
2022-10-11T00:12:59.407Z,17.94
2022-10-11T00:15:39.291Z,18.00
2022-10-11T00:18:16.702Z,17.99
2022-10-11T00:21:05.569Z,17.98
2022-10-11T00:23:44.866Z,17.92
2022-10-11T00:26:22.984Z,17.91
2022-10-11T00:29:01.918Z,17.78
2022-10-11T00:31:40.978Z,17.89
2022-10-11T00:34:19.174Z,17.85
2022-10-11T00:36:57.367Z,17.83
2022-10-11T00:39:34.241Z,17.76
2022-10-11T00:42:15.924Z,17.89
2022-10-11T00:45:27.315Z,17.81
2022-10-11T00:48:11.889Z,17.46
2022-10-11T00:50:49.506Z,17.74
2022-10-11T00:53:28.831Z,17.54
2022-10-11T00:56:13.226Z,17.80
2022-10-11T00:58:52.859Z,17.78
2022-10-11T01:01:32.654Z,17.79
2022-10-11T01:04:10.573Z,18.53
2022-10-11T01:06:49.410Z,18.30
2022-10-11T01:09:28.793Z,18.06
2022-10-11T01:12:16.273Z,18.41
2022-10-11T01:15:17.091Z,18.52
2022-10-11T01:18:05.860Z,18.45
2022-10-11T01:20:45.027Z,18.49
2022-10-11T01:23:44.547Z,18.46
2022-10-11T01:27:08.998Z,18.34
2022-10-11T01:29:53.405Z,17.72
2022-10-11T01:32:44.425Z,17.48
2022-10-11T01:35:42.047Z,17.56
2022-10-11T01:38:35.308Z,17.51
2022-10-11T01:41:24.761Z,17.45
2022-10-11T01:44:02.984Z,17.94
2022-10-11T01:46:41.209Z,18.17
2022-10-11T01:49:19.992Z,18.14
2022-10-11T01:52:00.996Z,18.14
2022-10-11T01:55:09.887Z,18.17
2022-10-11T01:57:54.902Z,18.19
2022-10-11T02:01:17.959Z,18.13
2022-10-11T02:04:06.487Z,18.13
2022-10-11T02:07:13.344Z,18.11
2022-10-11T02:10:34.540Z,18.31
2022-10-11T02:13:27.251Z,18.46
2022-10-11T02:16:08.855Z,18.53
2022-10-11T02:18:48.952Z,18.57
2022-10-11T02:21:28.541Z,18.68
2022-10-11T02:24:09.874Z,18.81
2022-10-11T02:26:54.146Z,18.95
2022-10-11T02:29:34.225Z,18.75
2022-10-11T02:32:12.882Z,19.04
2022-10-11T02:34:56.155Z,18.48
2022-10-11T02:37:59.084Z,19.12
2022-10-11T02:40:38.168Z,19.34
2022-10-11T02:43:33.399Z,19.29
2022-10-11T02:46:11.030Z,19.41
2022-10-11T02:48:49.165Z,19.33
2022-10-11T02:51:30.127Z,19.12
2022-10-11T02:54:09.162Z,18.96
2022-10-11T02:56:47.539Z,18.96
2022-10-11T02:59:26.769Z,18.92
2022-10-11T03:02:04.912Z,18.97
2022-10-11T03:04:43.570Z,19.04
2022-10-11T03:07:21.789Z,19.18
2022-10-11T03:09:59.996Z,19.12
2022-10-11T03:12:38.676Z,19.24
2022-10-11T03:15:17.980Z,19.42
2022-10-11T03:17:56.245Z,19.37
2022-10-11T03:20:34.753Z,19.39
2022-10-11T03:23:13.167Z,19.95
2022-10-11T03:25:52.388Z,20.07
2022-10-11T03:28:30.670Z,20.17
2022-10-11T03:31:09.502Z,20.23
2022-10-11T03:33:48.592Z,20.30
2022-10-11T03:36:26.783Z,20.26
2022-10-11T03:39:05.059Z,19.82
2022-10-11T03:41:43.935Z,19.58
2022-10-11T03:44:23.506Z,20.37
2022-10-11T03:47:03.606Z,20.54
2022-10-11T03:49:43.743Z,20.53
2022-10-11T03:52:22.024Z,20.54
2022-10-11T03:55:00.192Z,20.59
2022-10-11T03:57:38.943Z,20.67
2022-10-11T04:00:17.346Z,20.64
2022-10-11T04:02:56.531Z,20.65
2022-10-11T04:05:35.322Z,20.62
2022-10-11T04:08:20.894Z,20.44
2022-10-11T04:11:00.315Z,20.64
2022-10-11T04:13:39.512Z,20.81
2022-10-11T04:16:18.855Z,20.81
2022-10-11T04:18:57.769Z,20.76
2022-10-11T04:21:37.748Z,20.70
2022-10-11T04:24:17.285Z,20.26
2022-10-11T04:26:55.490Z,19.80
2022-10-11T04:29:35.136Z,19.63
2022-10-11T04:32:13.430Z,20.01
2022-10-11T04:34:51.629Z,20.00
2022-10-11T04:37:29.867Z,20.39
2022-10-11T04:40:10.531Z,20.65
2022-10-11T04:42:50.630Z,20.93
2022-10-11T04:45:28.735Z,20.99
2022-10-11T04:48:06.849Z,20.99
2022-10-11T04:50:46.085Z,21.06
2022-10-11T04:53:29.377Z,21.16
2022-10-11T04:56:11.244Z,20.55
2022-10-11T04:58:49.545Z,20.55
2022-10-11T05:01:27.380Z,20.48
2022-10-11T05:04:06.383Z,20.99
2022-10-11T05:06:46.083Z,21.26
2022-10-11T05:09:26.763Z,21.57
2022-10-11T05:12:06.174Z,21.58
2022-10-11T05:14:45.460Z,21.90
2022-10-11T05:17:24.108Z,22.07
2022-10-11T05:20:02.997Z,22.06
2022-10-11T05:22:41.021Z,22.39
2022-10-11T05:25:20.433Z,22.56
2022-10-11T05:28:00.551Z,22.52
2022-10-11T05:30:39.311Z,22.60
2022-10-11T05:33:16.333Z,22.56
2022-10-11T05:35:57.428Z,22.58
2022-10-11T05:38:39.363Z,22.71
2022-10-11T05:41:17.670Z,22.65
2022-10-11T05:43:56.239Z,22.68
2022-10-11T05:46:35.479Z,22.71
2022-10-11T05:49:15.067Z,22.75
2022-10-11T05:51:54.982Z,22.82
2022-10-11T05:54:34.421Z,22.68
2022-10-11T05:57:14.754Z,22.40
2022-10-11T05:59:53.926Z,22.57
2022-10-11T06:02:33.947Z,22.73
2022-10-11T06:05:13.912Z,22.77
2022-10-11T06:07:52.899Z,22.76
2022-10-11T06:10:31.198Z,22.79
2022-10-11T06:13:08.012Z,22.92
2022-10-11T06:15:45.408Z,23.01
2022-10-11T06:18:41.396Z,22.54
2022-10-11T06:21:20.806Z,22.20
2022-10-11T06:24:17.697Z,21.96
2022-10-11T06:27:13.754Z,22.11
2022-10-11T06:29:52.403Z,22.10
2022-10-11T06:32:50.041Z,22.43
2022-10-11T06:35:59.353Z,22.54
2022-10-11T06:38:55.267Z,22.60
2022-10-11T06:41:51.310Z,22.78
2022-10-11T06:44:48.645Z,22.84
2022-10-11T06:47:45.506Z,22.43
2022-10-11T06:50:59.115Z,22.18
2022-10-11T06:53:57.765Z,22.22
2022-10-11T06:57:08.913Z,22.49
2022-10-11T07:00:09.047Z,22.61
2022-10-11T07:03:20.741Z,22.78
2022-10-11T07:06:20.060Z,22.80
2022-10-11T07:09:19.551Z,22.49
2022-10-11T07:12:12.179Z,22.31
2022-10-11T07:15:13.681Z,22.05
2022-10-11T07:18:09.056Z,21.79
2022-10-11T07:21:10.553Z,21.64
2022-10-11T07:24:07.712Z,21.57
2022-10-11T07:27:12.945Z,21.35
2022-10-11T07:29:51.097Z,21.33
2022-10-11T07:32:29.794Z,21.26
2022-10-11T07:35:43.744Z,21.20
2022-10-11T07:38:44.155Z,21.19
2022-10-11T07:41:51.075Z,21.38
2022-10-11T07:44:59.476Z,21.48
2022-10-11T07:47:58.013Z,21.64
2022-10-11T07:51:26.490Z,21.85
2022-10-11T07:54:22.763Z,22.37
2022-10-11T07:57:15.720Z,22.34
2022-10-11T08:00:15.218Z,22.67
2022-10-11T08:03:09.295Z,22.77
2022-10-11T08:06:06.600Z,22.93
2022-10-11T08:09:02.833Z,22.95
2022-10-11T08:11:55.827Z,22.90
2022-10-11T08:14:51.320Z,23.09
2022-10-11T08:17:47.543Z,23.13
2022-10-11T08:20:51.974Z,23.26
2022-10-11T08:23:49.844Z,23.25
2022-10-11T08:26:27.316Z,23.27
2022-10-11T08:29:32.738Z,23.10
2022-10-11T08:32:29.581Z,23.35
2022-10-11T08:35:24.663Z,23.51
2022-10-11T08:38:29.892Z,23.67
2022-10-11T08:41:43.707Z,23.72
2022-10-11T08:45:08.842Z,23.93
2022-10-11T08:47:36.778Z,23.94
2022-10-11T08:50:07.472Z,24.15
2022-10-11T08:52:43.224Z,24.17
2022-10-11T08:55:21.485Z,24.27
2022-10-11T08:57:53.173Z,24.35
2022-10-11T09:00:20.364Z,24.48
2022-10-11T09:03:07.580Z,24.70
2022-10-11T09:05:39.999Z,24.62
2022-10-11T09:08:09.161Z,24.72
2022-10-11T09:10:58.117Z,24.77
2022-10-11T09:14:01.491Z,24.89
2022-10-11T09:16:47.596Z,24.94
2022-10-11T09:19:37.244Z,25.10
2022-10-11T09:22:13.306Z,25.22
2022-10-11T09:24:55.308Z,25.16
2022-10-11T09:28:00.821Z,25.18
2022-10-11T09:30:23.469Z,24.55
2022-10-11T09:33:16.299Z,24.63
2022-10-11T09:35:47.018Z,24.53
2022-10-11T09:38:45.670Z,24.28
2022-10-11T09:41:26.499Z,24.19
2022-10-11T09:43:53.488Z,24.75
2022-10-11T09:46:50.001Z,25.02
2022-10-11T09:49:18.742Z,24.69
2022-10-11T09:51:50.016Z,25.45
2022-10-11T09:54:17.223Z,25.53
2022-10-11T09:56:45.237Z,25.77
2022-10-11T09:59:27.410Z,25.83
2022-10-11T10:02:12.846Z,25.93
2022-10-11T10:05:01.066Z,25.72
2022-10-11T10:07:29.193Z,25.86
2022-10-11T10:09:58.494Z,26.04
2022-10-11T10:12:30.035Z,25.84
2022-10-11T10:15:08.309Z,25.83
2022-10-11T10:17:35.879Z,25.37
2022-10-11T10:20:05.579Z,25.48
2022-10-11T10:22:34.072Z,25.27
2022-10-11T10:25:02.472Z,25.53
2022-10-11T10:27:30.354Z,25.93
2022-10-11T10:30:13.563Z,26.23
2022-10-11T10:32:58.209Z,26.30
2022-10-11T10:35:40.205Z,26.26
2022-10-11T10:38:11.279Z,26.26
2022-10-11T10:40:44.115Z,26.37
2022-10-11T10:43:17.620Z,25.78
2022-10-11T10:45:57.340Z,26.62
2022-10-11T10:49:12.005Z,26.47
2022-10-11T10:51:30.863Z,26.16
2022-10-11T10:54:06.572Z,26.01
2022-10-11T10:56:51.391Z,26.30
2022-10-11T10:59:59.700Z,26.33
2022-10-11T11:02:44.774Z,26.40
2022-10-11T11:05:40.060Z,26.54
2022-10-11T11:08:34.797Z,26.37
2022-10-11T11:11:52.463Z,25.74
2022-10-11T11:14:22.073Z,25.43
2022-10-11T11:17:09.443Z,25.80
2022-10-11T11:19:38.773Z,26.10
2022-10-11T11:22:06.789Z,26.08
2022-10-11T11:24:51.706Z,25.16
2022-10-11T11:27:38.809Z,26.18
2022-10-11T11:30:29.875Z,25.14
2022-10-11T11:33:15.841Z,25.07
2022-10-11T11:35:47.635Z,25.16
2022-10-11T11:38:27.120Z,25.21
2022-10-11T11:40:58.696Z,25.18
2022-10-11T11:43:35.364Z,25.98
2022-10-11T11:46:23.586Z,25.25
2022-10-11T11:48:51.546Z,25.18
2022-10-11T11:51:31.535Z,24.95
2022-10-11T11:54:06.254Z,25.19
2022-10-11T11:56:45.247Z,25.51
2022-10-11T11:59:29.551Z,26.30
2022-10-11T12:02:15.152Z,24.68
2022-10-11T12:04:42.799Z,24.18
2022-10-11T12:07:16.212Z,25.94
2022-10-11T12:09:50.746Z,25.81
2022-10-11T12:12:34.137Z,26.55
2022-10-11T12:15:04.168Z,26.03
2022-10-11T12:17:31.055Z,26.92
2022-10-11T12:19:59.911Z,25.45
2022-10-11T12:22:26.783Z,25.32
2022-10-11T12:25:22.187Z,25.09
2022-10-11T12:27:53.071Z,25.06
2022-10-11T12:30:48.075Z,25.04
2022-10-11T12:33:17.761Z,25.11
2022-10-11T12:35:57.005Z,25.13
2022-10-11T12:38:34.736Z,25.14
2022-10-11T12:41:10.822Z,25.26
2022-10-11T12:43:49.740Z,25.35
2022-10-11T12:46:28.549Z,25.32
2022-10-11T12:49:33.353Z,25.38
2022-10-11T12:52:18.243Z,25.27
2022-10-11T12:55:07.759Z,25.23
2022-10-11T12:57:59.288Z,25.09
2022-10-11T13:00:32.055Z,25.04
2022-10-11T13:03:04.713Z,24.99
2022-10-11T13:05:50.992Z,25.06
2022-10-11T13:08:28.765Z,25.13
2022-10-11T13:11:03.446Z,25.23
2022-10-11T13:13:38.924Z,25.13
2022-10-11T13:16:19.193Z,25.21
2022-10-11T13:18:48.282Z,25.09
2022-10-11T13:21:21.472Z,24.92
2022-10-11T13:23:54.910Z,24.80
2022-10-11T13:26:21.932Z,24.89
2022-10-11T13:28:48.987Z,24.87
2022-10-11T13:31:16.045Z,24.77
2022-10-11T13:33:43.022Z,24.55
2022-10-11T13:36:14.601Z,24.39
2022-10-11T13:38:41.592Z,24.33
2022-10-11T13:41:09.487Z,24.32
2022-10-11T13:43:36.643Z,24.34
2022-10-11T13:46:06.759Z,24.38
2022-10-11T13:48:39.373Z,24.69
2022-10-11T13:51:12.484Z,24.82
2022-10-11T13:54:02.930Z,24.74
2022-10-11T13:56:35.216Z,24.66
2022-10-11T13:59:02.269Z,24.77
2022-10-11T14:01:37.004Z,24.79
2022-10-11T14:04:05.943Z,24.84
2022-10-11T14:06:48.959Z,24.93
2022-10-11T14:09:31.153Z,24.97
2022-10-11T14:12:26.100Z,25.02
2022-10-11T14:14:53.069Z,25.04
2022-10-11T14:17:21.888Z,25.10
2022-10-11T14:20:07.362Z,25.12
2022-10-11T14:22:37.238Z,25.13
2022-10-11T14:25:04.472Z,25.17
2022-10-11T14:27:31.477Z,25.19
2022-10-11T14:30:25.115Z,25.21
2022-10-11T14:32:46.276Z,25.23
2022-10-11T14:35:21.618Z,25.21
2022-10-11T14:37:48.570Z,25.22
2022-10-11T14:40:20.439Z,25.26
2022-10-11T14:42:47.352Z,25.25
2022-10-11T14:45:14.277Z,25.25
2022-10-11T14:47:43.061Z,25.25
2022-10-11T14:50:22.955Z,25.27
2022-10-11T14:52:49.871Z,25.27
2022-10-11T14:55:16.734Z,25.34
2022-10-11T14:57:43.694Z,25.38
2022-10-11T15:00:19.855Z,25.46
2022-10-11T15:02:47.033Z,25.44
2022-10-11T15:05:13.879Z,25.46
2022-10-11T15:07:40.728Z,25.45
2022-10-11T15:10:37.860Z,25.42
2022-10-11T15:13:05.043Z,25.36
2022-10-11T15:15:35.361Z,25.31
2022-10-11T15:18:03.035Z,25.27
2022-10-11T15:20:37.459Z,25.57
2022-10-11T15:23:04.820Z,25.56
2022-10-11T15:25:31.717Z,25.45
2022-10-11T15:27:58.568Z,25.55
2022-10-11T15:30:28.168Z,25.58
2022-10-11T15:32:55.145Z,25.54
2022-10-11T15:35:22.981Z,25.53
2022-10-11T15:37:54.313Z,25.51
2022-10-11T15:40:34.795Z,25.38
2022-10-11T15:43:01.965Z,25.55
2022-10-11T15:45:29.171Z,25.40
2022-10-11T15:47:56.033Z,25.54
2022-10-11T15:50:34.710Z,25.52
2022-10-11T15:53:05.267Z,25.48
2022-10-11T15:55:33.135Z,25.46
2022-10-11T15:58:01.216Z,25.47
2022-10-11T16:00:28.325Z,25.44
2022-10-11T16:02:55.253Z,25.41
2022-10-11T16:05:24.719Z,25.39
2022-10-11T16:07:52.143Z,25.38
2022-10-11T16:10:19.502Z,25.37
2022-10-11T16:12:46.374Z,25.28
2022-10-11T16:15:13.674Z,25.25
2022-10-11T16:17:40.550Z,24.95
2022-10-11T16:20:08.013Z,25.21
2022-10-11T16:22:35.116Z,25.15
2022-10-11T16:25:02.491Z,25.08
2022-10-11T16:27:29.736Z,25.16
2022-10-11T16:29:56.805Z,25.13
2022-10-11T16:32:24.322Z,25.09
2022-10-11T16:34:51.502Z,25.08
2022-10-11T16:37:18.472Z,25.06
2022-10-11T16:39:45.628Z,24.88
2022-10-11T16:42:12.564Z,25.01
2022-10-11T16:44:39.442Z,24.80
2022-10-11T16:47:06.304Z,24.91
2022-10-11T16:49:33.226Z,24.71
2022-10-11T16:52:00.766Z,24.78
2022-10-11T16:54:27.672Z,24.73
2022-10-11T16:56:54.530Z,24.68
2022-10-11T16:59:21.348Z,24.52
2022-10-11T17:01:48.220Z,24.56
2022-10-11T17:04:15.217Z,24.52
2022-10-11T17:06:43.904Z,24.50
2022-10-11T17:09:10.941Z,24.35
2022-10-11T17:11:37.823Z,24.30
2022-10-11T17:14:05.944Z,24.27
2022-10-11T17:16:33.022Z,24.19
2022-10-11T17:18:59.960Z,24.18
2022-10-11T17:21:27.073Z,24.00
2022-10-11T17:23:53.990Z,24.07
2022-10-11T17:26:24.884Z,24.06
2022-10-11T17:28:53.295Z,24.01
2022-10-11T17:31:20.196Z,23.92
2022-10-11T17:33:47.215Z,24.06
2022-10-11T17:36:25.037Z,23.90
2022-10-11T17:38:52.222Z,23.79
2022-10-11T17:41:19.281Z,23.73
2022-10-11T17:43:46.495Z,23.55
2022-10-11T17:46:14.066Z,23.68
2022-10-11T17:48:41.028Z,23.61
2022-10-11T17:51:12.382Z,23.54
2022-10-11T17:53:39.355Z,23.37
2022-10-11T17:56:10.841Z,23.42
2022-10-11T17:58:37.961Z,23.35
2022-10-11T18:01:06.680Z,23.31
2022-10-11T18:03:33.923Z,23.29
2022-10-11T18:06:07.680Z,23.25
2022-10-11T18:08:39.901Z,23.22
2022-10-11T18:11:17.799Z,23.07
2022-10-11T18:13:47.593Z,23.07
2022-10-11T18:16:15.014Z,22.98
2022-10-11T18:18:42.409Z,22.76
2022-10-11T18:21:09.337Z,22.93
2022-10-11T18:23:38.171Z,22.89
2022-10-11T18:26:09.740Z,22.85
2022-10-11T18:28:36.801Z,22.77
2022-10-11T18:31:12.344Z,22.75
2022-10-11T18:33:40.363Z,22.65
2022-10-11T18:36:08.122Z,22.60
2022-10-11T18:38:35.246Z,22.58
2022-10-11T18:41:07.147Z,22.60
2022-10-11T18:43:34.620Z,22.58
2022-10-11T18:46:12.321Z,22.48
2022-10-11T18:48:45.865Z,22.43
2022-10-11T18:51:20.124Z,22.37
2022-10-11T18:53:47.372Z,22.13
2022-10-11T18:56:14.935Z,22.21
2022-10-11T18:58:42.122Z,22.07
2022-10-11T19:01:12.669Z,22.25
2022-10-11T19:03:39.604Z,22.26
2022-10-11T19:06:17.228Z,22.27
2022-10-11T19:08:45.034Z,22.20
2022-10-11T19:11:13.003Z,22.21
2022-10-11T19:13:40.065Z,22.11
2022-10-11T19:16:11.480Z,22.08
2022-10-11T19:18:43.201Z,22.03
2022-10-11T19:21:12.513Z,21.96
2022-10-11T19:23:40.926Z,21.90
2022-10-11T19:26:09.200Z,21.92
2022-10-11T19:28:36.619Z,21.87
2022-10-11T19:31:04.569Z,21.62
2022-10-11T19:33:32.597Z,21.78
2022-10-11T19:36:00.022Z,21.69
2022-10-11T19:38:26.870Z,21.64
2022-10-11T19:40:53.827Z,21.63
2022-10-11T19:43:20.991Z,21.45
2022-10-11T19:45:47.880Z,21.53
2022-10-11T19:48:14.814Z,21.48
2022-10-11T19:50:41.717Z,21.38
2022-10-11T19:53:08.556Z,21.33
2022-10-11T19:55:35.457Z,21.25
2022-10-11T19:58:08.086Z,21.23
2022-10-11T20:00:35.246Z,21.17
2022-10-11T20:03:02.069Z,21.15
2022-10-11T20:05:29.049Z,21.10
2022-10-11T20:07:55.905Z,21.08
2022-10-11T20:10:22.813Z,21.04
2022-10-11T20:12:49.910Z,20.99
2022-10-11T20:15:16.911Z,20.97
2022-10-11T20:17:50.085Z,20.77
2022-10-11T20:20:17.322Z,20.87
2022-10-11T20:22:44.190Z,20.86
2022-10-11T20:25:11.143Z,20.82
2022-10-11T20:27:38.047Z,20.76
2022-10-11T20:30:05.429Z,20.56
2022-10-11T20:32:32.350Z,20.63
2022-10-11T20:34:59.224Z,20.63
2022-10-11T20:37:26.165Z,20.62
2022-10-11T20:39:53.069Z,20.59
2022-10-11T20:42:20.015Z,20.57
2022-10-11T20:44:48.226Z,20.53
2022-10-11T20:47:15.289Z,20.50
2022-10-11T20:49:42.105Z,20.44
2022-10-11T20:52:08.940Z,20.39
2022-10-11T20:54:35.837Z,20.34
2022-10-11T20:57:03.025Z,20.29
2022-10-11T20:59:29.832Z,20.24
2022-10-11T21:01:56.739Z,20.23
2022-10-11T21:04:23.565Z,20.21
2022-10-11T21:06:50.390Z,20.18
2022-10-11T21:09:17.445Z,20.16
2022-10-11T21:11:44.400Z,19.99
2022-10-11T21:14:11.248Z,20.09
2022-10-11T21:16:38.108Z,20.04
2022-10-11T21:19:04.984Z,20.01
2022-10-11T21:21:31.921Z,19.97
2022-10-11T21:24:00.598Z,19.78
2022-10-11T21:26:27.767Z,19.73
2022-10-11T21:28:54.779Z,19.68
2022-10-11T21:31:21.944Z,19.63
2022-10-11T21:33:48.838Z,19.74
2022-10-11T21:36:22.506Z,19.74
2022-10-11T21:38:51.332Z,19.73
2022-10-11T21:41:22.666Z,19.68
2022-10-11T21:43:49.680Z,19.65
2022-10-11T21:46:18.618Z,19.62
2022-10-11T21:48:45.891Z,19.58
2022-10-11T21:51:25.911Z,19.57
2022-10-11T21:53:53.224Z,19.52
2022-10-11T21:56:20.055Z,19.48
2022-10-11T21:58:47.924Z,19.44
2022-10-11T22:01:14.934Z,19.41
2022-10-11T22:03:41.928Z,19.36
2022-10-11T22:06:08.876Z,19.33
2022-10-11T22:08:35.899Z,19.31
2022-10-11T22:11:02.775Z,19.27
2022-10-11T22:13:30.290Z,19.23
2022-10-11T22:15:57.196Z,19.20
2022-10-11T22:18:24.503Z,19.15
2022-10-11T22:20:51.647Z,19.13
2022-10-11T22:23:19.275Z,19.08
2022-10-11T22:25:46.447Z,19.05
2022-10-11T22:28:13.518Z,19.00
2022-10-11T22:30:40.512Z,18.97
2022-10-11T22:33:07.343Z,18.95
2022-10-11T22:35:37.715Z,18.93
2022-10-11T22:38:05.803Z,18.90
2022-10-11T22:40:32.649Z,18.75
2022-10-11T22:42:59.482Z,18.84
2022-10-11T22:45:26.411Z,18.59
2022-10-11T22:47:53.231Z,18.73
2022-10-11T22:50:20.043Z,18.73
2022-10-11T22:52:46.906Z,18.68
2022-10-11T22:55:19.596Z,18.63
2022-10-11T22:57:47.011Z,18.60
2022-10-11T23:00:14.341Z,18.55
2022-10-11T23:02:41.171Z,18.53
2022-10-11T23:05:08.184Z,18.52
2022-10-11T23:07:35.378Z,18.46
2022-10-11T23:10:02.641Z,18.47
2022-10-11T23:12:30.211Z,18.45
2022-10-11T23:14:57.047Z,18.39
2022-10-11T23:17:23.947Z,18.40
2022-10-11T23:19:50.856Z,18.36
2022-10-11T23:22:17.738Z,18.33
2022-10-11T23:24:44.674Z,18.32
2022-10-11T23:27:11.544Z,18.30
2022-10-11T23:29:40.988Z,18.26
2022-10-11T23:32:08.376Z,18.23
2022-10-11T23:34:35.330Z,18.20
2022-10-11T23:37:02.376Z,18.18
2022-10-11T23:39:29.287Z,18.14
2022-10-11T23:41:56.124Z,18.12
2022-10-11T23:44:22.956Z,18.07
2022-10-11T23:46:49.889Z,18.05
2022-10-11T23:49:16.731Z,18.01
2022-10-11T23:51:43.550Z,17.96
2022-10-11T23:54:10.462Z,17.93
2022-10-11T23:56:37.518Z,17.90
2022-10-11T23:59:04.336Z,17.88
